Saturday, May 28, 2016, 3:50 AM EDT

KPTW, Pottstown Limerick Airport

Location: Royersford, PA, United States Lat: 40.233
Local Time: 3:50 AM EDT ( 7:50 GMT) Lon: -75.55
Time Zone: US/Eastern Elev: 291 ft

Show me the last for .
Show Decoded

2016-05-28 02:54 METAR KPTW 280654Z AUTO 21005KT 10SM CLR 22/17 A3011 RMK AO2 SLP191 T02220172 =
2016-05-28 01:54 METAR KPTW 280554Z AUTO VRB03KT 10SM CLR 23/18 A3011 RMK AO2 SLP190 T02280178
                 10283 20228 51006 =
2016-05-28 00:54 METAR KPTW 280454Z AUTO 23003KT 9SM CLR 23/19 A3010 RMK AO2 SLP188 T02330194
                 403110189 =
2016-05-27 23:54 METAR KPTW 280354Z AUTO 00000KT 8SM CLR 24/20 A3010 RMK AO2 SLP188 T02390200 =
2016-05-27 22:54 METAR KPTW 280254Z AUTO 19004KT 8SM FEW060 25/20 A3009 RMK AO2 SLP184 T02500200
                 51015 =
2016-05-27 21:54 METAR KPTW 280154Z AUTO 20007KT 8SM CLR 26/19 A3008 RMK AO2 SLP182 T02610194 =
2016-05-27 20:54 METAR KPTW 280054Z AUTO 20005KT 10SM CLR 27/19 A3006 RMK AO2 SLP174 T02670189 =
2016-05-27 19:54 METAR KPTW 272354Z AUTO 21007KT 8SM CLR 28/19 A3004 RMK AO2 SLP169 T02830189
                 10311 20283 53001 =
2016-05-27 18:54 METAR KPTW 272254Z AUTO 20007KT 160V220 8SM CLR 29/19 A3004 RMK AO2 SLP166
                 T02940194 =
2016-05-27 17:54 METAR KPTW 272154Z AUTO 19009KT 7SM CLR 29/20 A3003 RMK AO2 SLP164 T02940200 =
2016-05-27 16:54 METAR KPTW 272054Z AUTO 20007KT 160V230 7SM SCT050 BKN065 30/19 A3004 RMK AO2
                 SLP168 T03000194 55006 =
2016-05-27 15:54 METAR KPTW 271954Z AUTO 22006KT 8SM SCT050 SCT065 30/18 A3004 RMK AO2 SLP168
                 T03000183 =
2016-05-27 14:54 METAR KPTW 271854Z AUTO 21007KT 8SM FEW047 SCT060 30/19 A3005 RMK AO2 SLP170
                 T03000194 =
2016-05-27 13:54 METAR KPTW 271754Z AUTO 22008KT 7SM SCT049 BKN060 29/18 A3006 RMK AO2 SLP174
                 T02940183 10300 20222 58006 =
2016-05-27 12:54 METAR KPTW 271654Z AUTO 21007KT 180V240 8SM BKN042 BKN055 BKN065 29/19 A3007 RMK
                 AO2 SLP177 T02890194 =
2016-05-27 11:54 METAR KPTW 271554Z AUTO VRB04KT 8SM SCT040 BKN049 BKN060 28/19 A3007 RMK AO2
                 SLP179 T02830194 =
2016-05-27 10:54 METAR KPTW 271454Z AUTO 22005KT 8SM CLR 27/19 A3008 RMK AO2 SLP180 T02720189
                 55002 =
2016-05-27 09:54 METAR KPTW 271354Z AUTO 00000KT 7SM CLR 26/19 A3008 RMK AO2 SLP179 T02560189 =
2016-05-27 08:54 METAR KPTW 271254Z AUTO 20005KT 7SM CLR 24/18 A3008 RMK AO2 SLP182 T02390183 =
2016-05-27 07:54 METAR KPTW 271154Z AUTO VRB04KT 7SM CLR 22/18 A3008 RMK AO2 SLP182 T02220178
                 10228 20189 50005 =
2016-05-27 06:54 METAR KPTW 271054Z AUTO 00000KT 7SM CLR 22/18 A3009 RMK AO2 SLP184 T02170178 =
2016-05-27 05:54 METAR KPTW 270954Z AUTO 00000KT 7SM CLR 21/17 A3007 RMK AO2 SLP178 T02060167 =
2016-05-27 04:54 METAR KPTW 270854Z AUTO 00000KT 8SM FEW100 22/17 A3007 RMK AO2 SLP177 T02170167
                 50001 =
2016-05-27 03:54 METAR KPTW 270754Z AUTO 00000KT 9SM SCT075 SCT085 22/17 A3007 RMK AO2 SLP179
                 T02170172 =

Support USWX by starting your Amazon purchase here.